Time;durP1;ratioP1;P1;durP2;ratioP2;P2;SDS_P1;SDS_P2;PMS_P1;PMS_P2;Temp;Humidity;BMP_temperature;BMP_pressure;BME280_temperature;BME280_humidity;BME280_pressure;Samples;Min_cycle;Max_cycle;Signal;HPM_P1;HPM_P2
2022/09/21 00:00:41;;;;;;;6.63;5.43;;;10.80;99.90;;;;;;5113677;27;20199;-64
2022/09/21 00:03:07;;;;;;;11.23;5.60;;;10.80;99.90;;;;;;5091298;28;20649;-64
2022/09/21 00:05:34;;;;;;;7.50;5.40;;;10.70;99.90;;;;;;5062877;28;20183;-64
2022/09/21 00:08:04;;;;;;;8.25;5.13;;;10.70;99.90;;;;;;5102306;27;20183;-64
2022/09/21 00:10:30;;;;;;;7.75;6.90;;;10.70;99.90;;;;;;5119134;27;20195;-64
2022/09/21 00:12:58;;;;;;;11.03;5.70;;;10.60;99.90;;;;;;5094621;28;20253;-65
2022/09/21 00:15:24;;;;;;;6.15;4.95;;;10.60;99.90;;;;;;5085764;28;20641;-64
2022/09/21 00:17:54;;;;;;;7.47;4.93;;;10.60;99.90;;;;;;5104119;28;20249;-65
2022/09/21 00:20:20;;;;;;;10.33;6.07;;;10.60;99.90;;;;;;5077312;28;20184;-64
2022/09/21 00:22:47;;;;;;;9.73;5.73;;;10.60;99.90;;;;;;5106604;28;20191;-64
2022/09/21 00:25:14;;;;;;;7.33;5.40;;;10.50;99.90;;;;;;5083841;28;20189;-64
2022/09/21 00:27:40;;;;;;;8.10;5.23;;;10.50;99.90;;;;;;5078163;28;20187;-65
2022/09/21 00:30:07;;;;;;;8.03;5.00;;;10.50;99.90;;;;;;5091923;28;20263;-65
2022/09/21 00:32:35;;;;;;;7.17;4.97;;;10.50;99.90;;;;;;5105849;28;20184;-66
2022/09/21 00:35:06;;;;;;;11.40;5.77;;;10.50;99.90;;;;;;5092716;28;20645;-64
2022/09/21 00:37:33;;;;;;;8.90;5.90;;;10.50;99.90;;;;;;5113353;28;20172;-64
2022/09/21 00:39:59;;;;;;;9.87;5.97;;;10.40;99.90;;;;;;5104201;28;20180;-66
2022/09/21 00:42:34;;;;;;;10.17;6.00;;;10.50;99.90;;;;;;5107157;28;20244;-65
2022/09/21 00:45:00;;;;;;;7.87;5.63;;;10.50;99.90;;;;;;5104626;28;20605;-65
2022/09/21 00:47:33;;;;;;;9.07;6.13;;;10.40;99.90;;;;;;5102110;28;20188;-64
2022/09/21 00:50:01;;;;;;;8.43;5.50;;;10.40;99.90;;;;;;5110057;28;20215;-64
2022/09/21 00:52:31;;;;;;;8.50;5.90;;;10.40;99.90;;;;;;5106906;27;20240;-64
2022/09/21 00:55:04;;;;;;;10.53;5.47;;;10.40;99.90;;;;;;5092999;28;20185;-64
2022/09/21 00:57:30;;;;;;;6.30;5.03;;;10.40;99.90;;;;;;5109737;27;20621;-65
2022/09/21 01:00:00;;;;;;;10.60;5.50;;;10.30;99.90;;;;;;5104850;28;20191;-64
2022/09/21 01:02:27;;;;;;;7.33;6.23;;;10.30;99.90;;;;;;5116088;27;20184;-65
2022/09/21 01:04:53;;;;;;;6.93;5.17;;;10.30;99.90;;;;;;5100018;28;20209;-64
2022/09/21 01:07:27;;;;;;;8.47;6.27;;;10.20;99.90;;;;;;5117054;27;20220;-64
2022/09/21 01:09:56;;;;;;;9.30;5.53;;;10.20;99.90;;;;;;5096836;28;20640;-65
2022/09/21 01:12:33;;;;;;;10.43;5.90;;;10.20;99.90;;;;;;5098270;28;20231;-65
2022/09/21 01:15:04;;;;;;;7.93;6.33;;;10.20;99.90;;;;;;5104398;27;20662;-64
2022/09/21 01:18:10;;;;;;;10.13;7.00;;;10.20;99.90;;;;;;5094563;28;20673;-65
2022/09/21 01:20:39;;;;;;;7.63;5.53;;;10.10;99.90;;;;;;5111316;27;20233;-65
2022/09/21 01:23:04;;;;;;;8.77;6.77;;;10.10;99.90;;;;;;5094211;28;20270;-66
2022/09/21 01:25:48;;;;;;;13.77;6.50;;;10.10;99.90;;;;;;5104505;27;20255;-64
2022/09/21 01:28:29;;;;;;;12.60;7.13;;;10.10;99.90;;;;;;5116884;28;20203;-64
2022/09/21 01:30:59;;;;;;;9.50;7.07;;;10.10;99.90;;;;;;5116599;28;20176;-65
2022/09/21 01:33:47;;;;;;;9.03;6.37;;;10.00;99.90;;;;;;5116094;27;20243;-64
2022/09/21 01:36:17;;;;;;;9.97;6.20;;;10.10;99.90;;;;;;5108989;27;20180;-64
2022/09/21 01:38:54;;;;;;;9.33;6.37;;;10.00;99.90;;;;;;5125052;27;20210;-64
2022/09/21 01:41:24;;;;;;;7.80;6.33;;;10.00;99.90;;;;;;5081405;28;20176;-64
2022/09/21 01:43:54;;;;;;;11.67;7.47;;;9.90;99.90;;;;;;5109414;28;20195;-65
2022/09/21 01:46:24;;;;;;;9.20;6.50;;;9.90;99.90;;;;;;5101661;27;20187;-64
2022/09/21 01:48:55;;;;;;;11.70;6.77;;;9.90;99.90;;;;;;5113593;27;21169;-65
2022/09/21 01:51:25;;;;;;;12.97;8.17;;;9.90;99.90;;;;;;5091556;28;20325;-64
2022/09/21 01:53:57;;;;;;;14.77;9.70;;;9.90;99.90;;;;;;5083998;28;20203;-65
2022/09/21 01:56:29;;;;;;;8.30;6.67;;;9.90;99.90;;;;;;5102409;27;20257;-64
2022/09/21 01:59:07;;;;;;;8.90;7.57;;;9.80;99.90;;;;;;5105431;27;20180;-65
2022/09/21 02:01:37;;;;;;;14.57;6.77;;;9.80;99.90;;;;;;5114153;27;20172;-65
2022/09/21 02:04:11;;;;;;;10.07;7.37;;;9.80;99.90;;;;;;5096605;28;20183;-64
2022/09/21 02:06:43;;;;;;;10.43;6.93;;;9.80;99.90;;;;;;5099966;27;20676;-64
2022/09/21 02:09:10;;;;;;;9.47;7.07;;;9.80;99.90;;;;;;5114548;27;20184;-64
2022/09/21 02:11:37;;;;;;;14.13;6.47;;;9.80;99.90;;;;;;5092776;28;20223;-64
2022/09/21 02:14:07;;;;;;;11.27;7.83;;;9.70;99.90;;;;;;5116453;27;20215;-64
2022/09/21 02:16:54;;;;;;;11.23;6.90;;;9.70;99.90;;;;;;5089413;28;20272;-64
2022/09/21 02:19:38;;;;;;;13.57;7.93;;;9.70;99.90;;;;;;5097441;28;20180;-64
2022/09/21 02:22:12;;;;;;;9.63;8.00;;;9.70;99.90;;;;;;5111915;27;20176;-65
2022/09/21 02:24:40;;;;;;;10.17;7.07;;;9.60;99.90;;;;;;5112132;28;20531;-65
2022/09/21 02:27:31;;;;;;;9.80;7.40;;;9.60;99.90;;;;;;5106797;27;20258;-65
2022/09/21 02:30:02;;;;;;;13.07;7.17;;;9.50;99.90;;;;;;5105122;28;20228;-65
2022/09/21 02:33:08;;;;;;;16.17;7.23;;;9.50;99.90;;;;;;5096906;28;20590;-64
2022/09/21 02:36:00;;;;;;;12.67;7.27;;;9.50;99.90;;;;;;5096824;28;20195;-65
2022/09/21 02:38:46;;;;;;;9.57;6.60;;;9.50;99.90;;;;;;5092435;27;20176;-64
2022/09/21 02:41:33;;;;;;;9.23;6.67;;;9.50;99.90;;;;;;5102979;28;20182;-64
2022/09/21 02:44:13;;;;;;;12.13;6.73;;;9.50;99.90;;;;;;5102744;28;20656;-64
2022/09/21 02:46:44;;;;;;;11.90;6.70;;;9.50;99.90;;;;;;5110634;28;20235;-64
2022/09/21 02:49:17;;;;;;;7.07;5.53;;;9.40;99.90;;;;;;5101894;28;20254;-65
2022/09/21 02:51:57;;;;;;;7.57;6.10;;;9.40;99.90;;;;;;5102820;28;20177;-65
2022/09/21 02:54:28;;;;;;;8.40;6.37;;;9.40;99.90;;;;;;5109242;28;20195;-64
2022/09/21 02:56:55;;;;;;;8.80;6.80;;;9.40;99.90;;;;;;5105778;28;20654;-64
2022/09/21 02:59:22;;;;;;;9.70;6.60;;;9.40;99.90;;;;;;5114999;27;20184;-65
2022/09/21 03:01:48;;;;;;;5.93;5.37;;;9.40;99.90;;;;;;5070159;28;20192;-64
2022/09/21 03:04:15;;;;;;;8.77;6.20;;;9.40;99.90;;;;;;5061803;28;20665;-66
2022/09/21 03:06:41;;;;;;;9.03;6.33;;;9.40;99.90;;;;;;5079723;28;20590;-65
2022/09/21 03:09:07;;;;;;;9.93;5.33;;;9.40;99.90;;;;;;5093797;28;20188;-65
2022/09/21 03:11:34;;;;;;;14.23;5.67;;;9.40;99.90;;;;;;5076310;28;20184;-64
2022/09/21 03:14:02;;;;;;;13.83;5.93;;;9.40;99.90;;;;;;5095767;28;20258;-65
2022/09/21 03:16:28;;;;;;;11.33;5.50;;;9.40;99.90;;;;;;5077771;28;20180;-64
2022/09/21 03:18:53;;;;;;;7.93;5.43;;;9.40;99.90;;;;;;5062516;28;20709;-65
2022/09/21 03:21:19;;;;;;;7.23;5.10;;;9.30;99.90;;;;;;5088128;28;20220;-65
2022/09/21 03:23:45;;;;;;;10.37;6.77;;;9.30;99.90;;;;;;5086284;28;20185;-65
2022/09/21 03:26:10;;;;;;;6.60;5.10;;;9.40;99.90;;;;;;5072399;28;20180;-65
2022/09/21 03:28:36;;;;;;;9.07;5.43;;;9.40;99.90;;;;;;5106998;28;20225;-65
2022/09/21 03:31:01;;;;;;;11.40;5.07;;;9.40;99.90;;;;;;5085318;28;20237;-64
2022/09/21 03:33:27;;;;;;;12.03;6.00;;;9.30;99.90;;;;;;5091795;28;20652;-65
2022/09/21 03:35:53;;;;;;;12.93;6.53;;;9.30;99.90;;;;;;5094149;28;20196;-65
2022/09/21 03:38:20;;;;;;;9.23;6.97;;;9.30;99.90;;;;;;5112542;28;20531;-65
2022/09/21 03:40:49;;;;;;;7.23;5.83;;;9.30;99.90;;;;;;5095610;28;20197;-65
2022/09/21 03:43:16;;;;;;;8.37;5.80;;;9.30;99.90;;;;;;5086765;28;20189;-64
2022/09/21 03:45:42;;;;;;;8.57;5.97;;;9.30;99.90;;;;;;5112586;28;20186;-65
2022/09/21 03:48:09;;;;;;;10.53;6.57;;;9.20;99.90;;;;;;5099076;27;20218;-65
2022/09/21 03:50:35;;;;;;;15.73;6.43;;;9.20;99.90;;;;;;5092054;28;20598;-65
2022/09/21 03:53:01;;;;;;;9.63;6.23;;;9.20;99.90;;;;;;5081969;28;20675;-65
2022/09/21 03:55:27;;;;;;;7.30;5.80;;;9.20;99.90;;;;;;5095905;27;20184;-64
2022/09/21 03:57:52;;;;;;;9.90;5.67;;;9.20;99.90;;;;;;5061940;28;20288;-65
2022/09/21 04:00:18;;;;;;;10.30;6.17;;;9.20;99.90;;;;;;5086402;28;20725;-64
2022/09/21 04:02:44;;;;;;;11.57;5.90;;;9.20;99.90;;;;;;5077097;28;20192;-64
2022/09/21 04:05:13;;;;;;;7.87;6.00;;;9.20;99.90;;;;;;5100805;28;20192;-65
2022/09/21 04:07:39;;;;;;;7.37;5.73;;;9.10;99.90;;;;;;5090989;28;20183;-65
2022/09/21 04:10:06;;;;;;;9.50;5.93;;;9.10;99.90;;;;;;5107013;28;20189;-65
2022/09/21 04:12:33;;;;;;;10.00;5.47;;;9.10;99.90;;;;;;5084133;28;20238;-65
2022/09/21 04:15:06;;;;;;;9.33;6.00;;;9.10;99.90;;;;;;5074145;28;20211;-65
2022/09/21 04:17:32;;;;;;;8.47;5.60;;;9.00;99.90;;;;;;5106545;28;20180;-65
2022/09/21 04:19:58;;;;;;;8.27;5.60;;;9.00;99.90;;;;;;5113946;28;20280;-65
2022/09/21 04:22:25;;;;;;;13.57;5.87;;;9.00;99.90;;;;;;5091357;28;20192;-65
2022/09/21 04:24:51;;;;;;;10.20;6.27;;;9.00;99.90;;;;;;5106029;28;20650;-65
2022/09/21 04:27:17;;;;;;;9.70;6.60;;;9.00;99.90;;;;;;5106780;28;20184;-65
2022/09/21 04:29:43;;;;;;;7.03;5.83;;;9.00;99.90;;;;;;5093900;28;20196;-65
2022/09/21 04:32:10;;;;;;;7.60;6.03;;;9.00;99.90;;;;;;5094112;27;20189;-65
2022/09/21 04:34:38;;;;;;;8.60;7.00;;;9.00;99.90;;;;;;5058342;28;20189;-65
2022/09/21 04:37:05;;;;;;;11.23;6.40;;;9.00;99.90;;;;;;5083531;28;20184;-65
2022/09/21 04:39:31;;;;;;;10.23;6.40;;;9.00;99.90;;;;;;5094705;28;20275;-65
2022/09/21 04:41:57;;;;;;;8.97;5.67;;;9.00;99.90;;;;;;5103751;28;20224;-65
2022/09/21 04:44:23;;;;;;;19.20;6.80;;;9.00;99.90;;;;;;5118890;27;20275;-65
2022/09/21 04:46:49;;;;;;;11.87;6.33;;;9.00;99.90;;;;;;5105474;28;20180;-64
2022/09/21 04:49:15;;;;;;;10.40;6.90;;;9.00;99.90;;;;;;5099138;28;20179;-65
2022/09/21 04:51:41;;;;;;;7.93;6.10;;;9.00;99.90;;;;;;5103858;28;20181;-65
2022/09/21 04:54:06;;;;;;;8.30;6.13;;;9.00;99.90;;;;;;5097739;28;20393;-65
2022/09/21 04:56:32;;;;;;;12.23;7.17;;;9.00;99.90;;;;;;5101274;28;20229;-65
2022/09/21 04:58:58;;;;;;;12.17;7.93;;;9.00;99.90;;;;;;5082971;28;20185;-65
2022/09/21 05:01:24;;;;;;;8.67;6.77;;;9.00;99.90;;;;;;5101046;28;20324;-64
2022/09/21 05:03:49;;;;;;;13.30;8.03;;;9.10;99.90;;;;;;5101842;28;20312;-65
2022/09/21 05:06:15;;;;;;;19.00;9.03;;;9.10;99.90;;;;;;5110696;28;20183;-64
2022/09/21 05:11:25;;;;;;;11.70;7.20;;;9.10;99.90;;;;;;5078838;28;20237;-65
2022/09/21 05:13:51;;;;;;;14.57;8.80;;;9.10;99.90;;;;;;5074871;28;20200;-65
2022/09/21 05:16:18;;;;;;;13.57;7.60;;;9.00;99.90;;;;;;5108979;28;20202;-65
2022/09/21 05:18:44;;;;;;;13.53;8.33;;;9.00;99.90;;;;;;5083566;28;20545;-65
2022/09/21 05:21:12;;;;;;;12.40;7.97;;;9.00;99.90;;;;;;5088128;28;20180;-66
2022/09/21 05:23:38;;;;;;;13.90;7.97;;;9.10;99.90;;;;;;5094934;28;20211;-65
2022/09/21 05:26:04;;;;;;;10.47;7.97;;;9.10;99.90;;;;;;5112455;28;20183;-66
2022/09/21 05:28:30;;;;;;;14.47;7.67;;;9.00;99.90;;;;;;5094285;28;20191;-64
2022/09/21 05:31:23;;;;;;;12.00;7.73;;;9.00;99.90;;;;;;5099705;28;20187;-65
2022/09/21 05:33:54;;;;;;;10.67;6.77;;;8.90;99.90;;;;;;5079376;28;20565;-67
2022/09/21 05:36:43;;;;;;;12.10;7.87;;;8.80;99.90;;;;;;5081943;28;20188;-64
2022/09/21 05:39:10;;;;;;;11.23;7.43;;;8.90;99.90;;;;;;5101769;27;20592;-65
2022/09/21 05:41:36;;;;;;;11.10;7.37;;;8.90;99.90;;;;;;5089693;28;20644;-65
2022/09/21 05:44:02;;;;;;;13.43;9.63;;;9.00;99.90;;;;;;5110189;27;20218;-65
2022/09/21 05:46:41;;;;;;;14.10;9.30;;;9.00;99.90;;;;;;5111041;27;20188;-66
2022/09/21 05:49:14;;;;;;;13.07;8.27;;;9.00;99.90;;;;;;5100297;27;20191;-65
2022/09/21 05:52:05;;;;;;;12.27;8.50;;;9.00;99.90;;;;;;5114243;28;20553;-65
2022/09/21 05:54:49;;;;;;;12.60;8.33;;;9.10;99.90;;;;;;5108753;27;20187;-65
2022/09/21 05:57:57;;;;;;;9.87;8.10;;;9.20;99.90;;;;;;5077486;28;20184;-65
2022/09/21 06:00:23;;;;;;;9.17;7.27;;;9.20;99.90;;;;;;5096330;27;21168;-65
2022/09/21 06:02:59;;;;;;;16.97;8.83;;;9.30;99.90;;;;;;5107393;28;20302;-65
2022/09/21 06:05:25;;;;;;;8.33;7.20;;;9.30;99.90;;;;;;5107118;27;20179;-67
2022/09/21 06:07:51;;;;;;;10.20;7.33;;;9.30;99.90;;;;;;5101996;28;20181;-66
2022/09/21 06:10:17;;;;;;;14.07;7.70;;;9.30;99.90;;;;;;5099990;28;20203;-66
2022/09/21 06:12:43;;;;;;;13.30;8.07;;;9.30;99.90;;;;;;5078496;28;20554;-65
2022/09/21 06:15:12;;;;;;;11.13;7.30;;;9.40;99.90;;;;;;5115633;27;20187;-66
2022/09/21 06:17:38;;;;;;;14.83;9.30;;;9.40;99.90;;;;;;5092239;28;20173;-65
2022/09/21 06:20:06;;;;;;;14.07;9.47;;;9.40;99.90;;;;;;5060865;28;20180;-65
2022/09/21 06:22:32;;;;;;;14.73;9.10;;;9.30;99.90;;;;;;5090616;28;20271;-65
2022/09/21 06:24:57;;;;;;;11.67;8.13;;;9.20;99.90;;;;;;5080277;28;20650;-65
2022/09/21 06:27:23;;;;;;;17.80;10.83;;;9.20;99.90;;;;;;5111909;27;20182;-65
2022/09/21 06:29:49;;;;;;;16.80;9.43;;;9.20;99.90;;;;;;5079223;28;20211;-65
2022/09/21 06:32:14;;;;;;;13.97;9.97;;;9.20;99.90;;;;;;5066148;28;20649;-65
2022/09/21 06:34:41;;;;;;;13.37;7.97;;;9.10;99.90;;;;;;5078285;28;20263;-65
2022/09/21 06:37:07;;;;;;;18.00;8.83;;;9.00;99.90;;;;;;5081132;28;20240;-65
2022/09/21 06:39:33;;;;;;;13.43;8.27;;;9.10;99.90;;;;;;5086208;28;20600;-65
2022/09/21 06:41:58;;;;;;;10.83;8.07;;;9.20;99.90;;;;;;5112781;27;20240;-65
2022/09/21 06:44:24;;;;;;;10.07;7.37;;;9.10;99.90;;;;;;5095330;28;20180;-65
2022/09/21 06:46:50;;;;;;;14.17;9.73;;;9.20;99.90;;;;;;5098570;28;20184;-65
2022/09/21 06:49:16;;;;;;;15.13;9.00;;;9.40;99.90;;;;;;5078910;28;20625;-65
2022/09/21 06:51:42;;;;;;;13.97;9.57;;;9.60;99.90;;;;;;5103728;27;20667;-65
2022/09/21 06:54:08;;;;;;;11.60;7.63;;;9.70;99.90;;;;;;5083719;28;20211;-65
2022/09/21 06:56:34;;;;;;;16.77;9.40;;;10.00;99.90;;;;;;5081129;28;20177;-65
2022/09/21 06:59:00;;;;;;;13.67;9.10;;;10.10;99.90;;;;;;5055724;28;20513;-65
2022/09/21 07:01:26;;;;;;;12.93;8.20;;;10.10;99.90;;;;;;5073214;28;20192;-65
2022/09/21 07:03:52;;;;;;;21.90;9.63;;;10.00;99.90;;;;;;5078236;28;20203;-66
2022/09/21 07:06:19;;;;;;;14.97;9.80;;;10.10;99.90;;;;;;5103726;27;20187;-65
2022/09/21 07:08:45;;;;;;;11.67;8.93;;;10.20;99.90;;;;;;5078978;28;20188;-65
2022/09/21 07:11:12;;;;;;;10.20;8.50;;;10.10;99.90;;;;;;5110541;27;20192;-65
2022/09/21 07:13:39;;;;;;;13.02;9.27;;;10.90;99.90;;;;;;5089056;28;20287;-66
2022/09/21 07:16:06;;;;;;;11.75;8.52;;;12.30;99.90;;;;;;5094714;28;20187;-65
2022/09/21 07:18:35;;;;;;;13.48;9.05;;;13.80;99.90;;;;;;5072078;28;20180;-65
2022/09/21 07:21:03;;;;;;;14.30;8.75;;;15.40;99.90;;;;;;5091002;28;20176;-65
2022/09/21 07:23:28;;;;;;;12.75;7.35;;;16.80;99.90;;;;;;5110170;28;20187;-65
2022/09/21 07:25:54;;;;;;;11.23;7.00;;;17.40;99.90;;;;;;5106988;27;20193;-66
2022/09/21 07:28:20;;;;;;;11.90;6.80;;;18.20;99.90;;;;;;5112571;27;20184;-65
2022/09/21 07:30:46;;;;;;;8.75;6.45;;;19.40;99.90;;;;;;5101020;27;20236;-65
2022/09/21 07:33:11;;;;;;;10.93;6.30;;;20.40;99.90;;;;;;5093385;27;20202;-66
2022/09/21 07:35:37;;;;;;;8.77;6.82;;;21.10;99.90;;;;;;5110042;27;20211;-63
2022/09/21 07:38:06;;;;;;;7.85;6.43;;;21.30;99.90;;;;;;5105239;28;20267;-63
2022/09/21 07:40:32;;;;;;;9.32;5.93;;;21.70;99.90;;;;;;5108075;28;20222;-64
2022/09/21 07:43:01;;;;;;;9.27;5.88;;;22.00;99.90;;;;;;5108892;27;20219;-63
2022/09/21 07:45:27;;;;;;;9.85;6.85;;;22.40;99.90;;;;;;5105889;27;20204;-63
2022/09/21 07:47:53;;;;;;;12.23;6.53;;;22.20;99.90;;;;;;5104637;28;20195;-64
2022/09/21 07:50:20;;;;;;;8.93;5.95;;;22.10;99.90;;;;;;5080747;27;20186;-63
2022/09/21 07:52:46;;;;;;;7.85;6.45;;;21.70;99.90;;;;;;5066538;28;20243;-63
2022/09/21 07:55:12;;;;;;;8.95;5.88;;;21.50;99.90;;;;;;5099789;28;20184;-63
2022/09/21 08:00:24;;;;;;;9.32;6.38;;;20.70;99.90;;;;;;5106059;27;20236;-63
2022/09/21 08:02:50;;;;;;;17.13;6.25;;;21.60;99.90;;;;;;5099765;27;20191;-63
2022/09/21 08:05:16;;;;;;;11.48;6.72;;;22.50;99.90;;;;;;5085899;28;20184;-62
2022/09/21 08:07:41;;;;;;;7.93;6.50;;;21.70;99.90;;;;;;5100742;28;20215;-64
2022/09/21 08:10:08;;;;;;;7.32;6.57;;;21.80;99.90;;;;;;5085685;28;20291;-61
2022/09/21 08:12:33;;;;;;;10.25;6.25;;;22.20;99.90;;;;;;5110970;28;20283;-61
2022/09/21 08:14:59;;;;;;;10.32;7.35;;;22.40;99.90;;;;;;5107513;28;20303;-62
2022/09/21 08:17:25;;;;;;;10.05;8.70;;;22.50;99.90;;;;;;5097894;28;20203;-62
2022/09/21 08:19:50;;;;;;;8.23;5.22;;;23.00;99.90;;;;;;5094221;28;20211;-62
2022/09/21 08:22:16;;;;;;;12.68;6.57;;;23.20;99.90;;;;;;5103900;28;20258;-62
2022/09/21 08:24:43;;;;;;;9.60;6.03;;;23.60;99.90;;;;;;5063024;28;20189;-62
2022/09/21 08:27:09;;;;;;;8.02;6.20;;;22.50;99.90;;;;;;5098377;27;20631;-62
2022/09/21 08:29:35;;;;;;;11.35;6.97;;;22.60;99.90;;;;;;5120229;27;20175;-61
2022/09/21 08:32:02;;;;;;;6.78;6.10;;;22.20;99.90;;;;;;5094193;28;20189;-62
2022/09/21 08:34:27;;;;;;;10.80;5.90;;;21.10;99.90;;;;;;5076585;28;20192;-64
2022/09/21 08:36:53;;;;;;;7.30;6.28;;;20.20;99.90;;;;;;5107555;28;20179;-65
2022/09/21 08:39:19;;;;;;;7.47;6.78;;;19.30;99.90;;;;;;5117682;27;20180;-63
2022/09/21 08:41:54;;;;;;;10.32;7.20;;;18.60;99.90;;;;;;5101921;28;20181;-63
2022/09/21 08:44:25;;;;;;;11.50;8.18;;;17.60;99.90;;;;;;5074689;28;20198;-64
2022/09/21 08:47:04;;;;;;;11.68;7.07;;;17.10;99.90;;;;;;5080735;28;20186;-66
2022/09/21 08:49:32;;;;;;;8.50;6.28;;;16.90;99.90;;;;;;5112580;28;20221;-63
2022/09/21 08:52:19;;;;;;;6.45;5.78;;;16.30;99.90;;;;;;5109033;28;20251;-64
2022/09/21 08:54:51;;;;;;;6.88;6.20;;;16.20;99.90;;;;;;5101976;28;20266;-64
2022/09/21 08:57:18;;;;;;;8.55;6.70;;;16.10;99.90;;;;;;5096844;28;20190;-64
2022/09/21 08:59:48;;;;;;;12.60;5.63;;;16.10;99.90;;;;;;5108895;28;20172;-64
2022/09/21 09:02:20;;;;;;;5.70;4.50;;;16.10;99.90;;;;;;5103273;28;20181;-64
2022/09/21 09:05:10;;;;;;;9.82;6.07;;;15.60;99.90;;;;;;5082877;28;20184;-65
2022/09/21 09:07:36;;;;;;;7.45;5.28;;;15.60;99.90;;;;;;5099748;28;20637;-64
2022/09/21 09:10:16;;;;;;;6.88;4.57;;;15.60;99.90;;;;;;5074138;28;20242;-64
2022/09/21 09:12:42;;;;;;;6.93;5.20;;;15.80;99.90;;;;;;5094910;28;20259;-65
2022/09/21 09:15:47;;;;;;;10.60;6.35;;;15.80;99.90;;;;;;5087784;28;20180;-64
2022/09/21 09:18:50;;;;;;;8.07;5.05;;;15.70;99.90;;;;;;5091996;28;20684;-64
2022/09/21 09:21:39;;;;;;;6.90;5.00;;;15.70;99.90;;;;;;5081073;28;20172;-63
2022/09/21 09:24:33;;;;;;;9.10;4.32;;;15.90;99.90;;;;;;5080056;28;20223;-64
2022/09/21 09:27:04;;;;;;;5.35;4.70;;;16.00;99.90;;;;;;5098801;27;20184;-63
2022/09/21 09:29:43;;;;;;;6.00;4.20;;;16.10;99.90;;;;;;5115500;27;20179;-64
2022/09/21 09:32:13;;;;;;;6.93;4.38;;;16.10;99.90;;;;;;5116387;27;20681;-64
2022/09/21 09:34:52;;;;;;;6.38;3.78;;;16.20;99.90;;;;;;5088198;28;20219;-64
2022/09/21 09:37:22;;;;;;;7.88;4.00;;;16.00;99.90;;;;;;5125457;27;20179;-68
2022/09/21 09:39:55;;;;;;;3.40;3.05;;;16.00;99.90;;;;;;5099487;28;20540;-64
2022/09/21 09:42:21;;;;;;;2.88;2.67;;;15.90;99.90;;;;;;5113099;28;21212;-66
2022/09/21 09:44:52;;;;;;;4.75;3.30;;;16.00;99.90;;;;;;5108935;28;20222;-65
2022/09/21 09:47:36;;;;;;;5.15;2.88;;;16.10;99.90;;;;;;5083348;28;20177;-64
2022/09/21 09:50:05;;;;;;;2.65;1.92;;;16.20;99.90;;;;;;5116473;27;20211;-63
2022/09/21 09:52:32;;;;;;;2.28;2.08;;;16.10;99.90;;;;;;5086576;28;20197;-67
2022/09/21 09:54:59;;;;;;;3.83;2.47;;;16.30;99.90;;;;;;5077750;28;20196;-64
2022/09/21 09:57:32;;;;;;;2.97;2.15;;;16.20;99.90;;;;;;5047347;28;20188;-63
2022/09/21 10:00:11;;;;;;;2.72;2.00;;;16.00;99.90;;;;;;5082618;27;20184;-64
2022/09/21 10:02:50;;;;;;;6.78;1.83;;;15.90;99.90;;;;;;5103211;27;20180;-63
2022/09/21 10:05:24;;;;;;;6.57;2.13;;;16.10;99.90;;;;;;5115792;27;20211;-64
2022/09/21 10:07:51;;;;;;;6.78;3.95;;;16.10;99.90;;;;;;5102396;27;20169;-65
2022/09/21 10:10:31;;;;;;;2.83;1.88;;;16.00;99.90;;;;;;5103821;27;20252;-63
2022/09/21 10:13:06;;;;;;;3.03;1.95;;;16.20;99.90;;;;;;5099019;27;20740;-64
2022/09/21 10:15:31;;;;;;;1.88;1.77;;;16.20;99.90;;;;;;5092391;28;20274;-62
2022/09/21 10:18:04;;;;;;;1.45;1.30;;;16.10;99.90;;;;;;5090485;28;20263;-66
2022/09/21 10:20:31;;;;;;;2.47;0.90;;;16.20;99.90;;;;;;5088707;28;20626;-61
2022/09/21 10:22:59;;;;;;;1.15;0.90;;;16.20;99.90;;;;;;5105434;28;20195;-61
2022/09/21 10:25:25;;;;;;;1.33;1.23;;;16.20;99.90;;;;;;5096548;28;20199;-61
2022/09/21 10:27:52;;;;;;;1.35;1.25;;;16.50;99.90;;;;;;5106592;28;20180;-61
2022/09/21 10:30:29;;;;;;;7.43;3.35;;;16.60;99.90;;;;;;5113760;27;20184;-61
2022/09/21 10:32:57;;;;;;;3.45;0.95;;;16.60;99.90;;;;;;5091094;28;20660;-62
2022/09/21 10:35:23;;;;;;;3.58;1.20;;;16.30;99.90;;;;;;5080819;28;20188;-62
2022/09/21 10:38:17;;;;;;;1.80;1.40;;;16.20;99.90;;;;;;5067320;28;20192;-63
2022/09/21 10:40:44;;;;;;;1.20;1.10;;;16.20;99.90;;;;;;5107655;28;20645;-62
2022/09/21 10:43:43;;;;;;;13.05;5.50;;;16.10;99.90;;;;;;5079836;28;20195;-61
2022/09/21 10:46:09;;;;;;;1.52;1.20;;;16.20;99.90;;;;;;5106898;27;20183;-62
2022/09/21 10:48:36;;;;;;;5.15;3.25;;;16.60;99.90;;;;;;5079234;28;20225;-62
2022/09/21 10:51:02;;;;;;;6.90;3.03;;;16.70;99.90;;;;;;5092977;27;20241;-63
2022/09/21 10:53:31;;;;;;;4.20;3.75;;;16.80;99.90;;;;;;5074478;27;20275;-62
2022/09/21 10:56:07;;;;;;;2.67;2.05;;;16.70;99.90;;;;;;5096530;28;20184;-62
2022/09/21 10:58:34;;;;;;;3.20;1.20;;;16.90;99.90;;;;;;5099348;28;20203;-62
2022/09/21 11:01:21;;;;;;;2.60;1.40;;;17.10;99.90;;;;;;5090544;28;20588;-62
2022/09/21 11:04:07;;;;;;;2.05;1.08;;;17.30;99.90;;;;;;5105076;28;20640;-63
2022/09/21 11:06:39;;;;;;;2.58;0.98;;;17.40;99.90;;;;;;5103470;27;20184;-62
2022/09/21 11:09:11;;;;;;;2.75;1.30;;;17.60;99.90;;;;;;5093222;28;20188;-62
2022/09/21 11:11:41;;;;;;;1.52;1.40;;;18.00;99.90;;;;;;5083089;28;20630;-63
2022/09/21 11:14:25;;;;;;;6.35;3.42;;;18.20;99.90;;;;;;5100669;27;20653;-62
2022/09/21 11:17:04;;;;;;;3.40;1.20;;;18.60;99.90;;;;;;5105065;27;20188;-63
2022/09/21 11:19:47;;;;;;;3.50;1.15;;;19.00;99.90;;;;;;5097568;27;20187;-63
2022/09/21 11:22:29;;;;;;;1.45;1.20;;;19.30;99.90;;;;;;5084420;28;20175;-64
2022/09/21 11:25:08;;;;;;;1.60;0.90;;;19.20;99.90;;;;;;5108661;28;20182;-63
2022/09/21 11:27:41;;;;;;;3.15;1.38;;;19.40;99.90;;;;;;5094626;28;20176;-64
2022/09/21 11:30:18;;;;;;;2.90;0.85;;;19.70;99.90;;;;;;5107768;27;20179;-63
2022/09/21 11:32:56;;;;;;;2.45;1.27;;;19.40;99.90;;;;;;5094294;28;20192;-63
2022/09/21 11:35:49;;;;;;;1.90;1.05;;;19.40;99.90;;;;;;5112871;28;20201;-63
2022/09/21 11:38:28;;;;;;;2.00;0.75;;;19.30;99.90;;;;;;5086694;28;20637;-63
2022/09/21 11:41:03;;;;;;;4.13;1.10;;;19.30;99.90;;;;;;5106155;28;20180;-63
2022/09/21 11:43:34;;;;;;;1.40;1.30;;;19.20;99.90;;;;;;5093545;27;20180;-63
2022/09/21 11:46:53;;;;;;;1.95;1.35;;;19.20;99.90;;;;;;5086189;28;20168;-63
2022/09/21 11:49:32;;;;;;;4.60;1.30;;;19.10;99.90;;;;;;5013709;28;20202;-64
2022/09/21 11:52:31;;;;;;;2.22;1.23;;;19.10;99.90;;;;;;5016208;28;20552;-63
2022/09/21 11:55:22;;;;;;;2.15;1.15;;;19.10;99.90;;;;;;5077712;28;20211;-64
2022/09/21 11:58:20;;;;;;;6.38;2.47;;;19.30;99.90;;;;;;5111328;28;20641;-63
2022/09/21 12:01:10;;;;;;;1.05;1.05;;;19.30;99.90;;;;;;5101855;28;20225;-63
2022/09/21 12:03:46;;;;;;;0.65;0.65;;;19.20;99.90;;;;;;5093360;28;20659;-63
2022/09/21 12:06:18;;;;;;;1.25;0.90;;;19.10;99.90;;;;;;5098023;28;20175;-63
2022/09/21 12:09:14;;;;;;;1.60;0.90;;;19.00;99.90;;;;;;5087402;28;20230;-62
2022/09/21 12:11:43;;;;;;;1.00;1.00;;;18.90;99.90;;;;;;5106877;28;20266;-62
2022/09/21 12:14:14;;;;;;;1.60;0.82;;;18.90;99.90;;;;;;5082991;28;20196;-62
2022/09/21 12:17:07;;;;;;;2.20;1.83;;;19.20;99.90;;;;;;5085363;28;20204;-63
2022/09/21 12:19:54;;;;;;;2.50;1.15;;;19.10;99.90;;;;;;5114816;27;20225;-62
2022/09/21 12:22:28;;;;;;;1.02;0.90;;;19.00;99.90;;;;;;5105126;27;20180;-63
2022/09/21 12:25:17;;;;;;;0.93;0.73;;;18.60;99.90;;;;;;5104499;28;20718;-63
2022/09/21 12:28:02;;;;;;;0.70;0.70;;;18.30;99.90;;;;;;5083087;28;20551;-63
2022/09/21 12:30:31;;;;;;;1.77;1.67;;;18.20;99.90;;;;;;5094082;27;20176;-63
2022/09/21 12:33:18;;;;;;;1.23;0.90;;;18.30;99.90;;;;;;5113242;28;20245;-64
2022/09/21 12:35:52;;;;;;;0.47;0.47;;;18.70;99.90;;;;;;5090364;27;20191;-62
2022/09/21 12:38:30;;;;;;;0.60;0.60;;;18.80;99.90;;;;;;5085465;28;20172;-62
2022/09/21 12:41:05;;;;;;;0.75;0.75;;;18.70;99.90;;;;;;5095092;28;20526;-62
2022/09/21 12:43:48;;;;;;;3.40;0.60;;;18.90;99.90;;;;;;5092965;28;20258;-62
2022/09/21 12:46:25;;;;;;;1.60;0.60;;;19.10;99.90;;;;;;5099621;28;20205;-63
2022/09/21 12:48:51;;;;;;;1.33;0.80;;;18.90;99.90;;;;;;5100463;28;20194;-63
2022/09/21 12:51:29;;;;;;;1.05;1.00;;;18.60;99.90;;;;;;5082204;28;20180;-63
2022/09/21 12:53:59;;;;;;;3.30;0.90;;;18.40;99.90;;;;;;5113134;28;20582;-63
2022/09/21 12:56:42;;;;;;;1.27;1.17;;;18.10;99.90;;;;;;5100036;28;20183;-62
2022/09/21 12:59:26;;;;;;;1.55;1.45;;;18.00;99.90;;;;;;5105555;28;20184;-62
2022/09/21 13:02:16;;;;;;;1.33;1.02;;;18.00;99.90;;;;;;5112543;28;20179;-62
2022/09/21 13:05:08;;;;;;;0.80;0.80;;;18.40;99.90;;;;;;5106428;28;20188;-64
2022/09/21 13:07:55;;;;;;;1.25;0.75;;;18.60;99.90;;;;;;5074881;28;20196;-64
2022/09/21 13:10:27;;;;;;;0.73;0.73;;;18.70;99.90;;;;;;5102623;28;20284;-62
2022/09/21 13:13:00;;;;;;;0.82;0.82;;;18.60;99.90;;;;;;5082918;28;20673;-63
2022/09/21 13:15:31;;;;;;;1.80;0.68;;;18.70;99.90;;;;;;5091765;28;20254;-62
2022/09/21 13:18:04;;;;;;;1.30;1.00;;;18.80;99.90;;;;;;5109655;28;20208;-63